createdAt,value
2018-07-12T00:00:37.194Z,25.11
2018-07-12T00:05:19.000Z,25.11
2018-07-12T00:10:01.915Z,25.08
2018-07-12T00:14:43.685Z,25.07
2018-07-12T00:19:26.642Z,25.03
2018-07-12T00:24:08.387Z,24.98
2018-07-12T00:28:53.810Z,24.96
2018-07-12T00:33:35.717Z,24.94
2018-07-12T00:38:21.023Z,24.81
2018-07-12T00:43:02.866Z,24.85
2018-07-12T00:47:45.006Z,24.89
2018-07-12T00:52:26.925Z,24.88
2018-07-12T00:57:13.467Z,24.86
2018-07-12T01:01:55.361Z,24.82
2018-07-12T01:06:37.210Z,24.75
2018-07-12T01:11:20.189Z,24.71
2018-07-12T01:16:02.032Z,24.72
2018-07-12T01:20:47.468Z,24.71
2018-07-12T01:25:29.338Z,24.65
2018-07-12T01:30:14.329Z,24.62
2018-07-12T01:34:56.094Z,24.63
2018-07-12T01:39:43.639Z,24.57
2018-07-12T01:44:25.470Z,24.55
2018-07-12T01:49:07.597Z,24.60
2018-07-12T01:53:49.472Z,24.50
2018-07-12T01:58:34.485Z,24.45
2018-07-12T02:03:16.804Z,24.47
2018-07-12T02:08:01.610Z,24.47
2018-07-12T02:12:43.576Z,24.44
2018-07-12T02:17:28.825Z,24.36
2018-07-12T02:22:10.748Z,24.37
2018-07-12T02:26:53.694Z,24.43
2018-07-12T02:31:35.530Z,24.18
2018-07-12T02:36:17.595Z,24.11
2018-07-12T02:41:00.558Z,24.21
2018-07-12T02:45:42.386Z,24.13
2018-07-12T02:50:25.334Z,24.18
2018-07-12T02:55:07.178Z,24.19
2018-07-12T02:59:52.946Z,24.23
2018-07-12T03:04:34.759Z,24.00
2018-07-12T03:09:16.599Z,24.11
2018-07-12T03:13:58.424Z,24.21
2018-07-12T03:18:40.534Z,24.10
2018-07-12T03:23:22.307Z,24.00
2018-07-12T03:28:05.115Z,24.07
2018-07-12T03:32:47.046Z,24.03
2018-07-12T03:37:32.081Z,23.97
2018-07-12T03:42:13.942Z,23.97
2018-07-12T03:46:58.873Z,23.98
2018-07-12T03:51:40.666Z,23.90
2018-07-12T03:56:22.534Z,23.88
2018-07-12T04:01:04.295Z,23.92
2018-07-12T04:05:46.214Z,23.71
2018-07-12T04:10:31.821Z,23.85
2018-07-12T04:15:13.583Z,23.98
2018-07-12T04:19:56.699Z,23.85
2018-07-12T04:24:38.536Z,23.85
2018-07-12T04:29:20.511Z,23.90
2018-07-12T04:34:02.404Z,23.99
2018-07-12T04:38:47.633Z,23.90
2018-07-12T04:43:29.550Z,23.91
2018-07-12T04:48:14.610Z,23.91
2018-07-12T04:52:56.473Z,23.87
2018-07-12T04:57:41.504Z,24.01
2018-07-12T05:02:23.305Z,23.92
2018-07-12T05:07:08.430Z,23.94
2018-07-12T05:11:50.243Z,24.02
2018-07-12T05:16:33.156Z,23.98
2018-07-12T05:21:15.042Z,23.97
2018-07-12T05:25:56.888Z,24.09
2018-07-12T05:30:39.055Z,24.07
2018-07-12T05:35:20.830Z,24.06
2018-07-12T05:40:08.150Z,24.15
2018-07-12T05:44:51.463Z,24.06
2018-07-12T05:49:38.584Z,24.16
2018-07-12T05:54:22.052Z,24.29
2018-07-12T05:59:08.849Z,24.37
2018-07-12T06:03:52.392Z,24.46
2018-07-12T06:08:37.010Z,24.47
2018-07-12T06:13:20.677Z,24.50
2018-07-12T06:18:05.262Z,24.63
2018-07-12T06:22:50.209Z,24.62
2018-07-12T06:27:34.069Z,24.81
2018-07-12T06:32:17.659Z,24.75
2018-07-12T06:37:04.680Z,24.84
2018-07-12T06:41:48.172Z,24.83
2018-07-12T06:46:36.441Z,25.00
2018-07-12T06:51:19.997Z,24.91
2018-07-12T06:56:03.589Z,24.95
2018-07-12T07:00:47.012Z,24.97
2018-07-12T07:05:30.541Z,25.35
2018-07-12T07:10:15.263Z,25.47
2018-07-12T07:14:58.941Z,25.29
2018-07-12T07:19:43.539Z,25.29
2018-07-12T07:24:27.145Z,25.60
2018-07-12T07:29:10.862Z,25.55
2018-07-12T07:33:54.526Z,25.58
2018-07-12T07:38:41.658Z,25.83
2018-07-12T07:43:25.243Z,25.64
2018-07-12T07:48:08.762Z,25.43
2018-07-12T07:52:52.152Z,25.56
2018-07-12T07:57:35.918Z,25.67
2018-07-12T08:02:19.477Z,25.54
2018-07-12T08:07:06.971Z,25.53
2018-07-12T08:11:51.002Z,25.66
2018-07-12T08:16:37.682Z,25.74
2018-07-12T08:21:21.170Z,25.77
2018-07-12T08:26:08.409Z,25.82
2018-07-12T08:30:53.651Z,25.86
2018-07-12T08:35:37.428Z,25.93
2018-07-12T08:40:22.312Z,25.94
2018-07-12T08:45:05.743Z,26.02
2018-07-12T08:49:49.297Z,26.01
2018-07-12T08:54:32.897Z,26.21
2018-07-12T08:59:16.630Z,26.21
2018-07-12T09:04:00.263Z,26.30
2018-07-12T09:08:44.056Z,26.53
2018-07-12T09:13:28.088Z,26.17
2018-07-12T09:18:12.175Z,26.09
2018-07-12T09:22:55.846Z,26.85
2018-07-12T09:27:40.744Z,26.39
2018-07-12T09:32:24.603Z,26.50
2018-07-12T09:37:08.045Z,26.51
2018-07-12T09:41:51.573Z,26.84
2018-07-12T09:46:36.160Z,26.30
2018-07-12T09:51:19.694Z,26.72
2018-07-12T09:56:06.871Z,26.72
2018-07-12T10:00:55.674Z,26.68
2018-07-12T10:07:48.996Z,26.46
2018-07-12T10:12:36.886Z,27.27
2018-07-12T10:17:25.690Z,26.84
2018-07-12T10:22:10.423Z,26.97
2018-07-12T10:26:55.215Z,27.00
2018-07-12T10:31:38.776Z,27.12
2018-07-12T10:36:22.423Z,26.75
2018-07-12T10:41:05.953Z,27.23
2018-07-12T10:45:52.859Z,27.39
2018-07-12T10:50:37.198Z,27.12
2018-07-12T10:55:20.765Z,27.14
2018-07-12T11:00:10.150Z,27.11
2018-07-12T11:04:53.739Z,27.34
2018-07-12T11:09:40.396Z,27.61
2018-07-12T11:14:23.922Z,27.78
2018-07-12T11:19:07.626Z,27.83
2018-07-12T11:23:51.094Z,27.63
2018-07-12T11:28:38.278Z,27.44
2018-07-12T11:33:48.054Z,27.72
2018-07-12T11:38:37.530Z,27.92
2018-07-12T11:43:21.258Z,28.27
2018-07-12T11:48:06.627Z,28.47
2018-07-12T11:52:51.572Z,28.58
2018-07-12T11:57:36.928Z,28.39
2018-07-12T12:02:21.149Z,28.19
2018-07-12T12:07:05.351Z,28.14
2018-07-12T12:11:49.402Z,28.59
2018-07-12T12:16:33.661Z,28.10
2018-07-12T12:21:17.129Z,28.01
2018-07-12T12:26:01.638Z,27.97
2018-07-12T12:30:45.198Z,28.03
2018-07-12T12:35:32.822Z,28.16
2018-07-12T12:40:16.467Z,28.42
2018-07-12T12:44:59.970Z,28.28
2018-07-12T12:49:47.101Z,28.59
2018-07-12T12:54:30.681Z,28.27
2018-07-12T12:59:17.707Z,28.44
2018-07-12T13:04:01.325Z,28.66
2018-07-12T13:08:45.087Z,28.74
2018-07-12T13:13:28.485Z,28.44
2018-07-12T13:18:12.112Z,28.51
2018-07-12T13:22:55.553Z,28.36
2018-07-12T13:27:39.477Z,28.31
2018-07-12T13:32:22.792Z,28.85
2018-07-12T13:37:06.445Z,28.49
2018-07-12T13:41:50.582Z,28.48
2018-07-12T13:46:35.077Z,28.44
2018-07-12T13:51:18.655Z,29.01
2018-07-12T13:56:02.307Z,28.71
2018-07-12T14:00:45.795Z,28.67
2018-07-12T14:05:30.462Z,28.59
2018-07-12T14:10:13.957Z,28.61
2018-07-12T14:14:57.695Z,28.78
2018-07-12T14:19:41.392Z,28.87
2018-07-12T14:24:24.993Z,29.43
2018-07-12T14:29:08.634Z,28.98
2018-07-12T14:33:52.213Z,28.92
2018-07-12T14:38:35.978Z,28.83
2018-07-12T14:43:19.485Z,28.71
2018-07-12T14:48:03.360Z,28.45
2018-07-12T14:52:46.918Z,28.44
2018-07-12T14:57:30.649Z,28.36
2018-07-12T15:02:14.341Z,28.27
2018-07-12T15:07:02.322Z,28.34
2018-07-12T15:11:45.805Z,28.28
2018-07-12T15:16:33.090Z,28.28
2018-07-12T15:21:16.692Z,28.46
2018-07-12T15:26:04.092Z,28.47
2018-07-12T15:30:47.710Z,28.39
2018-07-12T15:35:32.200Z,28.36
2018-07-12T15:40:15.920Z,28.35
2018-07-12T15:44:59.540Z,28.43
2018-07-12T15:49:43.094Z,28.43
2018-07-12T15:54:26.726Z,28.46
2018-07-12T15:59:13.468Z,28.45
2018-07-12T16:03:57.033Z,28.46
2018-07-12T16:08:41.774Z,28.47
2018-07-12T16:13:25.503Z,28.39
2018-07-12T16:18:08.959Z,28.23
2018-07-12T16:22:52.782Z,28.38
2018-07-12T16:27:36.678Z,28.37
2018-07-12T16:32:20.932Z,28.40
2018-07-12T16:37:09.420Z,28.43
2018-07-12T16:41:53.650Z,28.31
2018-07-12T16:46:38.118Z,28.39
2018-07-12T16:51:21.756Z,28.39
2018-07-12T16:56:08.402Z,28.33
2018-07-12T17:00:52.016Z,28.35
2018-07-12T17:05:38.767Z,28.42
2018-07-12T17:10:22.385Z,28.29
2018-07-12T17:15:06.996Z,28.24
2018-07-12T17:19:50.562Z,28.30
2018-07-12T17:24:34.241Z,28.32
2018-07-12T17:29:17.812Z,28.19
2018-07-12T17:34:01.251Z,28.28
2018-07-12T17:38:46.023Z,28.30
2018-07-12T17:43:29.756Z,28.30
2018-07-12T17:48:13.329Z,27.97
2018-07-12T17:52:56.872Z,27.93
2018-07-12T17:57:40.717Z,27.81
2018-07-12T18:02:24.285Z,27.78
2018-07-12T18:07:49.112Z,27.68
2018-07-12T18:12:49.396Z,27.43
2018-07-12T18:17:37.471Z,27.73
2018-07-12T18:22:21.097Z,27.46
2018-07-12T18:27:04.867Z,27.51
2018-07-12T18:31:48.378Z,27.63
2018-07-12T18:36:33.026Z,27.74
2018-07-12T18:41:16.504Z,27.76
2018-07-12T18:46:01.079Z,27.48
2018-07-12T18:50:44.657Z,27.27
2018-07-12T18:55:31.498Z,27.53
2018-07-12T19:00:14.984Z,27.62
2018-07-12T19:05:02.120Z,27.19
2018-07-12T19:09:45.745Z,27.45
2018-07-12T19:14:29.401Z,27.49
2018-07-12T19:19:12.907Z,27.39
2018-07-12T19:23:56.441Z,27.46
2018-07-12T19:28:40.089Z,27.59
2018-07-12T19:33:23.729Z,27.24
2018-07-12T19:38:08.417Z,27.07
2018-07-12T19:42:52.089Z,27.38
2018-07-12T19:47:39.070Z,27.26
2018-07-12T19:52:22.634Z,27.40
2018-07-12T19:57:10.160Z,27.38
2018-07-12T20:01:53.761Z,27.13
2018-07-12T20:06:40.529Z,27.07
2018-07-12T20:11:24.208Z,26.84
2018-07-12T20:16:11.158Z,27.13
2018-07-12T20:20:54.770Z,27.06
2018-07-12T20:25:42.203Z,26.66
2018-07-12T20:30:25.778Z,26.50
2018-07-12T20:35:10.309Z,26.63
2018-07-12T20:39:53.788Z,26.88
2018-07-12T20:44:40.892Z,26.90
2018-07-12T20:49:24.431Z,26.63
2018-07-12T20:54:08.102Z,26.77
2018-07-12T20:58:51.702Z,26.75
2018-07-12T21:03:35.295Z,26.61
2018-07-12T21:08:19.848Z,26.64
2018-07-12T21:13:03.359Z,26.68
2018-07-12T21:17:50.947Z,26.68
2018-07-12T21:22:34.586Z,26.71
2018-07-12T21:27:18.300Z,26.68
2018-07-12T21:32:01.882Z,26.36
2018-07-12T21:36:45.532Z,26.51
2018-07-12T21:41:29.235Z,26.54
2018-07-12T21:46:16.458Z,26.50
2018-07-12T21:50:59.857Z,26.50
2018-07-12T21:55:44.503Z,26.17
2018-07-12T22:00:30.991Z,26.16
2018-07-12T22:05:17.887Z,26.15
2018-07-12T22:10:01.196Z,26.40
2018-07-12T22:14:48.273Z,26.25
2018-07-12T22:19:31.810Z,26.41
2018-07-12T22:24:18.926Z,26.46
2018-07-12T22:29:02.585Z,26.44
2018-07-12T22:33:46.246Z,26.03
2018-07-12T22:38:29.844Z,25.50
2018-07-12T22:44:42.589Z,26.17
2018-07-12T22:49:26.196Z,26.23
2018-07-12T22:54:13.313Z,26.34
2018-07-12T22:58:56.969Z,26.31
2018-07-12T23:03:40.621Z,26.31
2018-07-12T23:08:24.323Z,26.30
2018-07-12T23:13:07.892Z,26.26
2018-07-12T23:17:52.550Z,26.30
2018-07-12T23:22:36.030Z,26.23
2018-07-12T23:27:20.610Z,26.18
2018-07-12T23:32:04.264Z,26.16
2018-07-12T23:36:51.694Z,26.21
2018-07-12T23:41:35.315Z,26.11
2018-07-12T23:46:22.658Z,26.01
2018-07-12T23:51:06.272Z,26.06
2018-07-12T23:55:53.083Z,26.01
